Time;durP1;ratioP1;P1;durP2;ratioP2;P2;SDS_P1;SDS_P2;PMS_P1;PMS_P2;Temp;Humidity;BMP_temperature;BMP_pressure;BME280_temperature;BME280_humidity;BME280_pressure;Samples;Min_cycle;Max_cycle;Signal;HPM_P1;HPM_P2
2021/04/26 04:22:27;;;;;;;12.27;11.20;;;5.70;97.50;;;;;;5466894;23;21064;-70
2021/04/26 04:24:53;;;;;;;13.40;12.40;;;5.80;97.50;;;;;;5039524;28;20455;-69
2021/04/26 04:27:19;;;;;;;12.80;11.70;;;5.70;97.60;;;;;;5032315;28;20483;-69
2021/04/26 04:29:46;;;;;;;13.47;12.57;;;5.70;97.60;;;;;;5032488;28;20456;-69
2021/04/26 04:32:12;;;;;;;12.80;11.97;;;5.70;97.50;;;;;;5032378;28;20819;-70
2021/04/26 04:34:38;;;;;;;15.70;14.73;;;5.70;97.40;;;;;;5032702;28;20914;-69
2021/04/26 04:37:04;;;;;;;12.50;11.80;;;5.70;97.50;;;;;;5032791;28;20464;-69
2021/04/26 04:39:31;;;;;;;10.90;10.30;;;5.70;97.50;;;;;;5032010;28;20456;-70
2021/04/26 04:41:58;;;;;;;12.33;11.53;;;5.70;97.30;;;;;;5032068;28;20493;-70
2021/04/26 04:44:24;;;;;;;13.10;12.30;;;5.70;97.20;;;;;;5032263;28;20460;-70
2021/04/26 04:46:50;;;;;;;12.80;12.00;;;5.70;97.00;;;;;;5032354;28;20443;-70
2021/04/26 04:49:16;;;;;;;13.57;12.60;;;5.70;97.00;;;;;;5032227;28;20460;-69
2021/04/26 04:51:44;;;;;;;11.73;10.73;;;5.80;96.80;;;;;;5031879;28;20830;-70
2021/04/26 04:54:10;;;;;;;12.33;11.60;;;5.80;96.80;;;;;;5032151;28;20446;-67
2021/04/26 04:56:39;;;;;;;13.90;12.60;;;5.80;96.90;;;;;;5032552;28;20509;-70
2021/04/26 04:59:05;;;;;;;12.30;11.60;;;5.80;97.10;;;;;;5032598;28;20479;-67
2021/04/26 05:01:32;;;;;;;12.80;11.73;;;5.80;97.30;;;;;;5032314;28;20448;-70
2021/04/26 05:03:58;;;;;;;13.03;12.13;;;6.00;97.20;;;;;;5032254;28;20451;-69
2021/04/26 05:06:25;;;;;;;12.07;11.17;;;6.10;97.00;;;;;;5034561;28;20482;-69
2021/04/26 05:08:52;;;;;;;11.80;10.63;;;6.40;96.70;;;;;;5051284;28;20508;-69
2021/04/26 05:11:18;;;;;;;11.60;10.80;;;6.70;96.20;;;;;;5051910;28;20443;-70
2021/04/26 05:13:45;;;;;;;12.17;11.37;;;7.10;95.50;;;;;;5052082;28;20455;-70
2021/04/26 05:16:12;;;;;;;13.03;12.13;;;7.50;94.60;;;;;;5051970;28;20452;-70
2021/04/26 05:18:38;;;;;;;12.50;11.70;;;7.90;94.00;;;;;;5039661;28;20457;-70
2021/04/26 05:21:05;;;;;;;13.47;12.53;;;8.30;93.60;;;;;;5049010;28;20476;-70
2021/04/26 05:23:31;;;;;;;12.50;11.77;;;8.70;92.30;;;;;;5022455;28;20489;-70
2021/04/26 05:25:58;;;;;;;13.13;11.83;;;9.10;91.80;;;;;;5011552;28;20442;-71
2021/04/26 05:28:24;;;;;;;15.10;12.80;;;9.50;90.90;;;;;;5011800;28;20455;-69
2021/04/26 05:30:51;;;;;;;13.40;12.47;;;10.00;89.00;;;;;;5011705;28;20477;-69
2021/04/26 05:33:17;;;;;;;13.17;12.30;;;10.00;87.50;;;;;;5011919;28;20454;-69
2021/04/26 05:35:44;;;;;;;14.30;13.10;;;9.80;88.70;;;;;;5011914;28;20869;-69
2021/04/26 05:38:11;;;;;;;13.47;12.57;;;10.30;87.20;;;;;;5012118;28;20451;-69
2021/04/26 05:40:38;;;;;;;12.77;11.97;;;10.80;84.00;;;;;;5011982;28;20477;-69
2021/04/26 05:43:04;;;;;;;12.83;12.00;;;11.10;82.30;;;;;;5011859;28;20484;-69
2021/04/26 05:45:31;;;;;;;14.43;12.67;;;11.30;80.50;;;;;;5023620;28;20549;-69
2021/04/26 05:47:58;;;;;;;15.67;14.63;;;11.70;78.30;;;;;;5031406;28;20463;-69
2021/04/26 05:50:24;;;;;;;15.77;14.73;;;12.00;76.40;;;;;;5031587;28;20563;-70
2021/04/26 05:52:50;;;;;;;13.40;12.57;;;11.90;75.00;;;;;;5031042;28;20776;-70
2021/04/26 05:55:17;;;;;;;13.73;12.83;;;12.20;75.70;;;;;;5030825;28;20453;-69
2021/04/26 05:57:43;;;;;;;13.60;12.40;;;12.40;73.70;;;;;;5031231;28;20544;-69
2021/04/26 06:00:10;;;;;;;13.40;12.67;;;12.60;72.70;;;;;;5031080;28;20869;-69
2021/04/26 06:02:37;;;;;;;14.33;13.33;;;12.70;72.30;;;;;;5031212;28;20484;-70
2021/04/26 06:05:04;;;;;;;13.70;12.90;;;13.10;70.80;;;;;;5030786;28;20453;-69
2021/04/26 06:07:31;;;;;;;13.60;12.37;;;13.30;69.60;;;;;;5030813;28;20452;-70
2021/04/26 06:09:57;;;;;;;16.37;13.90;;;13.60;68.30;;;;;;5031142;28;20463;-71
2021/04/26 06:12:23;;;;;;;15.30;14.00;;;13.70;67.00;;;;;;5030698;28;20942;-74
2021/04/26 06:14:49;;;;;;;13.20;12.07;;;13.90;66.50;;;;;;5030942;28;20457;-74
2021/04/26 06:17:16;;;;;;;13.50;12.70;;;14.00;64.40;;;;;;5030639;28;20453;-73
2021/04/26 06:19:42;;;;;;;13.30;12.40;;;13.60;62.30;;;;;;5028933;28;20453;-73
2021/04/26 06:22:09;;;;;;;14.00;13.00;;;13.40;62.40;;;;;;5039729;28;20495;-73
2021/04/26 06:24:35;;;;;;;13.10;12.00;;;13.40;62.60;;;;;;5051142;28;20452;-73
2021/04/26 06:27:01;;;;;;;13.63;12.63;;;13.50;62.50;;;;;;5050781;28;20452;-73
2021/04/26 06:29:27;;;;;;;13.20;12.47;;;13.50;61.50;;;;;;5050149;28;20464;-73
2021/04/26 06:31:54;;;;;;;13.33;12.43;;;13.80;61.70;;;;;;5050352;28;20502;-72
2021/04/26 06:34:20;;;;;;;13.97;12.90;;;13.80;60.00;;;;;;5050566;28;20456;-73
2021/04/26 06:36:46;;;;;;;14.03;13.23;;;13.70;60.60;;;;;;5050424;28;20456;-73
2021/04/26 06:39:13;;;;;;;13.47;12.57;;;13.80;60.20;;;;;;5050425;28;20444;-73
2021/04/26 06:41:39;;;;;;;14.53;13.43;;;13.90;60.00;;;;;;5050074;28;20499;-73
2021/04/26 06:44:06;;;;;;;14.30;13.30;;;14.40;59.90;;;;;;5050624;28;20448;-76
2021/04/26 06:46:32;;;;;;;14.90;14.07;;;14.90;58.30;;;;;;5050418;28;20448;-74
2021/04/26 06:48:59;;;;;;;14.27;13.37;;;15.30;57.60;;;;;;5050372;28;20476;-74
2021/04/26 06:51:25;;;;;;;14.37;13.33;;;15.00;57.20;;;;;;5050254;28;21040;-74
2021/04/26 06:53:51;;;;;;;13.00;12.40;;;15.60;57.00;;;;;;5035399;28;20440;-74
2021/04/26 06:56:18;;;;;;;14.70;13.60;;;15.60;56.20;;;;;;5030401;28;20475;-74
2021/04/26 06:58:45;;;;;;;13.60;12.90;;;15.60;56.50;;;;;;5030291;28;20456;-73
2021/04/26 07:01:11;;;;;;;15.03;14.10;;;15.50;56.50;;;;;;5030218;28;20618;-73
2021/04/26 07:03:37;;;;;;;13.37;12.67;;;15.60;56.10;;;;;;5030581;28;20852;-74
2021/04/26 07:06:04;;;;;;;14.20;13.27;;;15.20;55.90;;;;;;5030344;28;20456;-73
2021/04/26 07:08:30;;;;;;;13.63;12.90;;;15.40;56.70;;;;;;5030099;28;20450;-73
2021/04/26 07:10:56;;;;;;;13.90;13.10;;;15.30;56.30;;;;;;5030497;28;20790;-73
2021/04/26 07:13:23;;;;;;;13.63;12.60;;;15.80;55.90;;;;;;5030116;28;20456;-74
2021/04/26 07:15:50;;;;;;;14.83;13.83;;;16.20;54.80;;;;;;5030371;28;20457;-74
2021/04/26 07:18:16;;;;;;;13.37;12.77;;;16.20;54.30;;;;;;5030246;28;20536;-74
2021/04/26 07:20:42;;;;;;;14.97;14.07;;;15.70;54.20;;;;;;5030012;28;20476;-73
2021/04/26 07:23:08;;;;;;;14.40;13.70;;;15.40;55.20;;;;;;5047336;28;20487;-72
2021/04/26 07:25:35;;;;;;;14.60;13.90;;;15.10;55.10;;;;;;5049812;28;20459;-73
2021/04/26 07:28:01;;;;;;;14.10;13.30;;;15.30;55.90;;;;;;5050077;28;20471;-73
2021/04/26 07:30:28;;;;;;;13.93;12.80;;;15.50;54.80;;;;;;5049927;28;20459;-72
2021/04/26 07:32:54;;;;;;;14.97;13.70;;;15.60;55.00;;;;;;5054034;28;20834;-73
2021/04/26 07:35:20;;;;;;;13.73;12.90;;;15.70;54.60;;;;;;5053914;28;20444;-73
2021/04/26 07:37:46;;;;;;;15.40;14.30;;;16.20;54.80;;;;;;5050719;28;20448;-73
2021/04/26 07:40:14;;;;;;;14.40;13.50;;;16.70;53.80;;;;;;5024509;28;20446;-73
2021/04/26 07:42:41;;;;;;;13.47;12.70;;;16.80;52.80;;;;;;5020256;28;20541;-72
2021/04/26 07:45:09;;;;;;;14.50;13.70;;;16.80;52.60;;;;;;5034131;28;20888;-74
2021/04/26 07:47:36;;;;;;;15.90;14.70;;;16.90;52.30;;;;;;5022391;28;20944;-76
2021/04/26 07:50:04;;;;;;;15.77;14.73;;;18.10;51.30;;;;;;5014089;28;20457;-74
2021/04/26 07:52:30;;;;;;;15.20;14.30;;;17.40;50.40;;;;;;5017249;28;20449;-73
2021/04/26 07:54:56;;;;;;;14.70;13.90;;;17.50;51.10;;;;;;5031840;28;20456;-73
2021/04/26 07:57:23;;;;;;;15.30;14.60;;;17.70;50.60;;;;;;5013847;28;20468;-73
2021/04/26 07:59:49;;;;;;;14.50;13.60;;;18.40;49.60;;;;;;5013945;28;20477;-73
2021/04/26 08:02:15;;;;;;;14.87;13.90;;;19.00;49.10;;;;;;5013864;28;20497;-73
2021/04/26 08:04:42;;;;;;;14.97;13.70;;;18.90;47.50;;;;;;5013818;28;20462;-73
2021/04/26 08:07:08;;;;;;;14.70;13.80;;;19.10;47.70;;;;;;5013787;28;20452;-73
2021/04/26 08:09:35;;;;;;;13.80;13.10;;;18.90;47.60;;;;;;5013334;28;20454;-73
2021/04/26 08:12:01;;;;;;;14.10;13.30;;;18.90;47.40;;;;;;5015321;28;20465;-73
2021/04/26 08:14:27;;;;;;;15.43;14.60;;;18.90;47.20;;;;;;5033556;28;20954;-74
2021/04/26 08:16:53;;;;;;;14.77;13.97;;;19.40;46.20;;;;;;5033228;28;20459;-73
2021/04/26 08:19:19;;;;;;;13.93;13.23;;;18.40;47.00;;;;;;5033141;28;20835;-73
2021/04/26 08:21:48;;;;;;;14.03;13.23;;;19.00;47.50;;;;;;5039095;28;20487;-73
2021/04/26 08:24:14;;;;;;;14.20;13.40;;;19.40;46.30;;;;;;5053426;28;20546;-72
2021/04/26 08:26:40;;;;;;;13.93;13.00;;;18.50;47.10;;;;;;5053447;28;20460;-72
2021/04/26 08:29:07;;;;;;;15.50;14.50;;;18.20;47.60;;;;;;5053408;28;20467;-72
2021/04/26 08:31:34;;;;;;;14.00;13.30;;;18.30;48.10;;;;;;5052819;28;21052;-73
2021/04/26 08:34:00;;;;;;;14.77;13.70;;;18.70;47.90;;;;;;5052989;28;20680;-73
2021/04/26 08:36:26;;;;;;;15.03;13.93;;;18.50;47.70;;;;;;5052200;28;20468;-73
2021/04/26 08:38:53;;;;;;;14.20;13.40;;;19.40;47.00;;;;;;5053178;28;20514;-74
2021/04/26 08:41:20;;;;;;;15.27;14.10;;;19.60;46.10;;;;;;5053192;28;20448;-74
2021/04/26 08:43:47;;;;;;;15.50;14.70;;;19.80;45.80;;;;;;5050641;28;20491;-74
2021/04/26 08:46:14;;;;;;;14.97;13.97;;;18.70;46.30;;;;;;5032787;28;20487;-73
2021/04/26 08:48:41;;;;;;;15.77;14.77;;;18.40;47.50;;;;;;5032400;28;20803;-73
2021/04/26 08:51:07;;;;;;;16.47;15.37;;;18.10;47.80;;;;;;5032484;28;20460;-72
2021/04/26 08:53:34;;;;;;;15.90;14.90;;;18.30;48.30;;;;;;5044784;28;20449;-73
2021/04/26 08:56:01;;;;;;;16.33;15.40;;;17.90;48.40;;;;;;5052293;28;20447;-73
2021/04/26 08:58:29;;;;;;;16.37;15.37;;;18.10;48.10;;;;;;5052202;28;20596;-72
2021/04/26 09:00:55;;;;;;;15.20;14.30;;;18.50;48.10;;;;;;5050229;28;20456;-72
2021/04/26 09:03:31;;;;;;;14.90;14.07;;;18.70;47.40;;;;;;5052063;28;20491;-71
2021/04/26 09:05:57;;;;;;;15.13;14.13;;;19.10;46.80;;;;;;5051911;28;20482;-73
2021/04/26 09:08:24;;;;;;;14.77;14.00;;;18.80;46.70;;;;;;5052600;28;20448;-74
2021/04/26 09:10:51;;;;;;;15.13;14.10;;;19.00;46.30;;;;;;5052357;28;20452;-73
2021/04/26 09:13:33;;;;;;;15.77;14.67;;;19.60;45.70;;;;;;5051841;28;20914;-73
2021/04/26 09:16:03;;;;;;;15.60;14.60;;;19.50;45.10;;;;;;5050044;28;20547;-72
2021/04/26 09:18:54;;;;;;;15.87;14.87;;;19.70;46.00;;;;;;5051729;28;20468;-73
2021/04/26 09:21:24;;;;;;;15.80;15.00;;;20.60;45.00;;;;;;5051579;28;20486;-73
2021/04/26 09:24:10;;;;;;;15.77;14.80;;;20.70;43.70;;;;;;5051661;28;20993;-73
2021/04/26 09:26:37;;;;;;;15.57;14.60;;;20.70;44.00;;;;;;5051688;28;20456;-73
2021/04/26 09:29:20;;;;;;;14.73;14.03;;;20.90;44.30;;;;;;5051529;28;20459;-72
2021/04/26 09:32:06;;;;;;;15.97;14.87;;;21.40;43.00;;;;;;5051699;28;20488;-72
2021/04/26 09:34:34;;;;;;;15.83;14.83;;;20.90;43.20;;;;;;5051642;28;20497;-73
2021/04/26 09:37:08;;;;;;;16.47;15.37;;;20.70;43.20;;;;;;5051370;28;20455;-72
2021/04/26 09:39:37;;;;;;;15.30;14.20;;;21.20;42.80;;;;;;5051499;28;20448;-72
2021/04/26 09:42:04;;;;;;;16.93;15.93;;;20.40;43.50;;;;;;5051485;28;20448;-73
2021/04/26 09:44:31;;;;;;;15.53;14.60;;;19.80;44.20;;;;;;5050994;28;20937;-72
2021/04/26 09:46:57;;;;;;;16.60;15.40;;;20.50;44.10;;;;;;5051259;28;20452;-72
2021/04/26 09:49:25;;;;;;;16.40;15.43;;;20.60;43.60;;;;;;5051482;28;20506;-71
2021/04/26 09:51:53;;;;;;;15.60;14.60;;;21.60;43.50;;;;;;5051134;28;20938;-71
2021/04/26 09:54:34;;;;;;;16.53;15.47;;;21.60;42.00;;;;;;5031983;28;20449;-72
2021/04/26 09:57:01;;;;;;;16.13;15.30;;;21.50;41.90;;;;;;5031357;28;21001;-72
2021/04/26 09:59:28;;;;;;;15.40;14.40;;;21.20;41.50;;;;;;5031368;28;20800;-72
2021/04/26 10:01:55;;;;;;;14.87;14.07;;;20.90;42.40;;;;;;5031377;28;20540;-72
2021/04/26 10:04:22;;;;;;;15.63;14.53;;;21.20;41.90;;;;;;5031223;28;20483;-72
2021/04/26 10:06:49;;;;;;;15.70;14.80;;;22.00;41.90;;;;;;5030842;28;20456;-72
2021/04/26 10:09:15;;;;;;;14.90;14.00;;;21.90;41.80;;;;;;5030934;28;20959;-72
2021/04/26 10:11:41;;;;;;;14.70;13.87;;;21.70;42.40;;;;;;5030713;28;20808;-72
2021/04/26 10:14:09;;;;;;;16.10;15.20;;;20.90;42.00;;;;;;5031322;28;20437;-71
2021/04/26 10:16:43;;;;;;;15.13;14.13;;;21.40;41.30;;;;;;5031269;28;20831;-71
2021/04/26 10:19:14;;;;;;;15.30;14.30;;;21.50;41.20;;;;;;5030627;28;20945;-72
2021/04/26 10:21:40;;;;;;;16.67;15.57;;;22.60;40.40;;;;;;5030786;28;20547;-71
2021/04/26 10:24:19;;;;;;;16.63;15.70;;;23.40;39.70;;;;;;5030768;28;21030;-71
2021/04/26 10:26:48;;;;;;;16.00;15.30;;;23.20;37.90;;;;;;5031073;28;20433;-72
2021/04/26 10:29:17;;;;;;;16.47;15.57;;;23.00;38.00;;;;;;5030398;28;20508;-71
2021/04/26 10:32:07;;;;;;;16.03;15.10;;;22.40;38.20;;;;;;5030499;28;20445;-72
2021/04/26 10:34:36;;;;;;;17.33;16.23;;;23.00;38.40;;;;;;5030456;28;20441;-72
2021/04/26 10:37:04;;;;;;;16.03;15.20;;;22.40;38.70;;;;;;5030393;28;20460;-72
2021/04/26 10:39:32;;;;;;;16.63;15.53;;;22.80;37.90;;;;;;5030529;28;20460;-72
2021/04/26 10:42:08;;;;;;;16.67;15.73;;;22.60;38.20;;;;;;5030523;28;20451;-72
2021/04/26 10:44:51;;;;;;;16.50;15.60;;;23.10;38.10;;;;;;5030423;28;20861;-72
2021/04/26 10:47:23;;;;;;;16.47;15.47;;;23.40;37.80;;;;;;5030473;28;20821;-72
2021/04/26 10:49:52;;;;;;;15.63;14.93;;;23.00;37.30;;;;;;5030680;28;20810;-72
2021/04/26 10:52:36;;;;;;;15.73;14.83;;;22.50;38.30;;;;;;5029984;28;20449;-71
2021/04/26 10:55:07;;;;;;;15.80;15.00;;;21.70;39.70;;;;;;5029896;28;20560;-71
2021/04/26 10:57:36;;;;;;;16.00;15.00;;;21.90;39.30;;;;;;5030298;28;20525;-71
2021/04/26 11:00:40;;;;;;;16.17;15.17;;;22.20;39.40;;;;;;5030159;28;21148;-71
2021/04/26 11:03:34;;;;;;;15.50;14.60;;;24.00;38.30;;;;;;5030382;28;20519;-71
2021/04/26 11:06:26;;;;;;;16.67;15.80;;;25.60;35.50;;;;;;5031276;28;20452;-71
2021/04/26 11:11:43;;;;;;;16.07;15.07;;;24.80;35.20;;;;;;5030930;28;20774;-71
2021/04/26 11:14:19;;;;;;;16.40;15.33;;;23.60;34.40;;;;;;5034406;28;20877;-71
2021/04/26 11:16:57;;;;;;;16.53;15.63;;;23.10;35.60;;;;;;5033972;28;20441;-72
2021/04/26 11:19:24;;;;;;;15.53;14.83;;;22.40;37.20;;;;;;5033937;28;20448;-72
2021/04/26 11:21:56;;;;;;;15.93;14.60;;;21.80;38.20;;;;;;5040690;28;20484;-72
2021/04/26 11:25:03;;;;;;;15.20;14.40;;;21.30;38.50;;;;;;5054379;28;20487;-71
2021/04/26 11:27:33;;;;;;;16.60;15.70;;;22.10;38.80;;;;;;5054245;28;20945;-71
2021/04/26 11:30:17;;;;;;;16.30;15.37;;;22.90;37.70;;;;;;5053445;28;20799;-72
2021/04/26 11:33:07;;;;;;;16.40;15.60;;;24.40;35.70;;;;;;5053877;28;20571;-72
2021/04/26 11:35:34;;;;;;;15.80;15.00;;;24.60;35.20;;;;;;5053854;28;20448;-72
2021/04/26 11:38:01;;;;;;;16.33;15.50;;;24.80;34.60;;;;;;5053770;28;20935;-71
2021/04/26 11:40:31;;;;;;;16.50;15.70;;;25.20;34.70;;;;;;5053677;28;20464;-72
2021/04/26 11:43:05;;;;;;;17.27;16.27;;;26.40;33.80;;;;;;5053645;28;20878;-71
2021/04/26 11:45:32;;;;;;;16.30;15.40;;;24.40;35.10;;;;;;5053742;28;20453;-72
2021/04/26 11:47:59;;;;;;;16.83;15.90;;;23.00;36.20;;;;;;5053688;28;20479;-72
2021/04/26 11:50:25;;;;;;;16.50;15.60;;;22.60;37.20;;;;;;5053348;28;20454;-71
2021/04/26 11:52:52;;;;;;;15.17;14.30;;;22.60;37.20;;;;;;5053422;28;20448;-72
2021/04/26 11:55:23;;;;;;;15.17;14.27;;;23.40;37.20;;;;;;5053971;28;20451;-71
2021/04/26 11:57:51;;;;;;;14.83;14.23;;;23.90;34.60;;;;;;5053570;28;21231;-72
2021/04/26 12:00:20;;;;;;;15.53;14.70;;;23.80;33.70;;;;;;5053474;28;20456;-71
2021/04/26 12:02:48;;;;;;;14.90;14.10;;;23.60;33.60;;;;;;5053155;28;20989;-72
2021/04/26 12:05:16;;;;;;;14.93;14.03;;;24.00;33.80;;;;;;5053240;28;20517;-71
2021/04/26 12:07:43;;;;;;;14.83;14.00;;;24.70;32.50;;;;;;5053027;28;20456;-72
2021/04/26 12:10:12;;;;;;;15.67;14.87;;;24.50;32.60;;;;;;5053497;28;20451;-71
2021/04/26 12:12:41;;;;;;;14.80;14.10;;;23.80;33.20;;;;;;5053240;28;20448;-71
2021/04/26 12:15:10;;;;;;;15.03;14.30;;;24.10;33.10;;;;;;5053373;28;20448;-72
2021/04/26 12:17:37;;;;;;;14.37;13.77;;;24.50;32.10;;;;;;5053240;28;20942;-71
2021/04/26 12:20:13;;;;;;;15.27;14.47;;;24.50;30.90;;;;;;5053158;28;20471;-72
2021/04/26 12:22:39;;;;;;;14.60;14.00;;;24.10;31.30;;;;;;5052913;28;20766;-71
2021/04/26 12:25:08;;;;;;;15.33;14.33;;;23.20;32.70;;;;;;5053328;28;20448;-72
2021/04/26 12:27:34;;;;;;;14.77;14.10;;;23.80;32.70;;;;;;5052904;28;20452;-71
2021/04/26 12:30:17;;;;;;;15.27;14.57;;;23.60;31.10;;;;;;5052755;28;20452;-71
2021/04/26 12:32:44;;;;;;;14.97;13.97;;;22.70;32.80;;;;;;5052696;28;20796;-71
2021/04/26 12:35:12;;;;;;;15.00;14.30;;;22.30;34.50;;;;;;5052397;28;20444;-71
2021/04/26 12:37:40;;;;;;;15.37;14.60;;;22.20;34.60;;;;;;5052702;28;20447;-71
2021/04/26 12:40:22;;;;;;;15.03;14.13;;;22.20;34.60;;;;;;5052663;28;20455;-72
2021/04/26 12:42:50;;;;;;;14.37;13.67;;;22.70;34.10;;;;;;5053199;28;20483;-71
2021/04/26 12:45:22;;;;;;;14.73;14.07;;;23.10;34.40;;;;;;5052254;28;20930;-70
2021/04/26 12:47:55;;;;;;;14.90;14.20;;;23.50;33.50;;;;;;5052595;28;20938;-71
2021/04/26 12:50:25;;;;;;;15.77;14.97;;;23.50;33.30;;;;;;5052978;28;20444;-71
2021/04/26 12:53:09;;;;;;;15.23;14.20;;;24.00;32.00;;;;;;5052530;28;20440;-71
2021/04/26 12:55:36;;;;;;;16.37;15.30;;;23.50;34.30;;;;;;5052375;28;20455;-71
2021/04/26 12:58:08;;;;;;;14.20;13.50;;;23.20;32.50;;;;;;5052626;28;20448;-71
2021/04/26 13:00:41;;;;;;;14.53;13.73;;;23.10;33.40;;;;;;5052524;28;20824;-71
2021/04/26 13:03:21;;;;;;;15.40;14.50;;;23.40;32.90;;;;;;5052271;28;20479;-71
2021/04/26 13:05:48;;;;;;;15.10;14.30;;;22.60;33.40;;;;;;5052256;28;20447;-71
2021/04/26 13:08:15;;;;;;;14.67;13.80;;;22.60;34.40;;;;;;5052216;28;20476;-71
2021/04/26 13:10:41;;;;;;;15.20;14.30;;;22.60;33.30;;;;;;5052130;28;20448;-71
2021/04/26 13:13:07;;;;;;;14.80;14.10;;;22.30;33.00;;;;;;5052202;28;20436;-72
2021/04/26 13:15:33;;;;;;;14.73;13.97;;;22.40;32.80;;;;;;5052157;28;20463;-71
2021/04/26 13:18:15;;;;;;;15.60;14.50;;;23.20;31.20;;;;;;5051958;28;20452;-71
2021/04/26 13:20:43;;;;;;;14.10;13.50;;;23.10;31.80;;;;;;5052034;28;20468;-71
2021/04/26 13:23:13;;;;;;;14.70;13.80;;;22.90;32.70;;;;;;5051751;28;20510;-71
2021/04/26 13:25:40;;;;;;;14.83;13.97;;;22.90;32.20;;;;;;5051761;28;20460;-70
2021/04/26 13:28:06;;;;;;;15.10;14.27;;;22.90;32.10;;;;;;5051852;28;20444;-71
2021/04/26 13:30:33;;;;;;;14.97;14.27;;;22.20;31.70;;;;;;5050908;28;20819;-70
2021/04/26 13:32:59;;;;;;;12.90;12.27;;;21.70;32.80;;;;;;5051399;28;20456;-71
2021/04/26 13:35:27;;;;;;;13.67;13.07;;;21.80;32.70;;;;;;5051325;28;20452;-71
2021/04/26 13:37:53;;;;;;;14.10;13.50;;;22.10;31.50;;;;;;5051441;28;20444;-72
2021/04/26 13:40:19;;;;;;;14.00;13.20;;;22.80;31.20;;;;;;5051385;28;20503;-71
2021/04/26 13:42:46;;;;;;;15.10;14.30;;;22.80;30.60;;;;;;5051590;28;20842;-72
2021/04/26 13:45:12;;;;;;;15.37;14.57;;;23.50;30.40;;;;;;5051467;28;20497;-71
2021/04/26 13:47:39;;;;;;;15.13;14.23;;;23.60;31.30;;;;;;5051543;28;20448;-71
2021/04/26 13:50:07;;;;;;;13.87;12.97;;;22.80;32.30;;;;;;5051421;28;20502;-71
2021/04/26 13:52:34;;;;;;;14.63;13.93;;;22.50;32.80;;;;;;5051218;28;20448;-71
2021/04/26 13:55:00;;;;;;;14.90;14.20;;;21.70;33.80;;;;;;5050923;28;20444;-70
2021/04/26 13:57:26;;;;;;;14.67;13.97;;;21.40;34.10;;;;;;5051256;28;20448;-71
2021/04/26 13:59:52;;;;;;;14.53;13.83;;;21.50;34.30;;;;;;5051812;28;20459;-70
2021/04/26 14:02:19;;;;;;;15.13;14.33;;;21.70;33.80;;;;;;5051438;28;20459;-71
2021/04/26 14:04:45;;;;;;;14.87;13.87;;;21.80;33.60;;;;;;5050990;28;21184;-71
2021/04/26 14:07:11;;;;;;;14.67;13.97;;;21.50;33.60;;;;;;5051023;28;20452;-71
2021/04/26 14:09:38;;;;;;;15.40;14.40;;;21.70;33.30;;;;;;5051362;28;20459;-71
2021/04/26 14:12:07;;;;;;;13.43;12.83;;;22.00;33.20;;;;;;5049480;28;20455;-69
2021/04/26 14:14:33;;;;;;;14.70;13.90;;;21.90;29.50;;;;;;5050595;28;21003;-71
2021/04/26 14:17:00;;;;;;;13.33;12.63;;;21.80;29.60;;;;;;5050755;28;20486;-70
2021/04/26 14:19:26;;;;;;;14.13;13.33;;;22.50;29.10;;;;;;5051199;28;20451;-70
2021/04/26 14:21:53;;;;;;;14.00;13.40;;;22.90;29.10;;;;;;5051009;28;20475;-71
2021/04/26 14:24:19;;;;;;;14.47;13.60;;;22.70;30.50;;;;;;5050875;28;20491;-70
2021/04/26 14:26:46;;;;;;;14.73;13.83;;;22.90;30.60;;;;;;5050796;28;20455;-70
2021/04/26 14:29:12;;;;;;;13.90;13.20;;;22.70;31.80;;;;;;5050918;28;20827;-70
2021/04/26 14:31:38;;;;;;;14.77;13.77;;;21.90;32.40;;;;;;5050814;28;20448;-70
2021/04/26 14:34:05;;;;;;;13.30;12.60;;;21.20;32.70;;;;;;5050923;28;20447;-70
2021/04/26 14:36:31;;;;;;;13.80;12.70;;;20.80;33.80;;;;;;5050845;28;20486;-71
2021/04/26 14:38:58;;;;;;;12.33;11.83;;;20.40;33.00;;;;;;5051011;28;20451;-70
2021/04/26 14:41:24;;;;;;;13.43;12.67;;;19.10;33.50;;;;;;5050305;28;20534;-70
2021/04/26 14:43:51;;;;;;;13.30;12.70;;;18.70;33.60;;;;;;5050839;28;20506;-71
2021/04/26 14:46:17;;;;;;;12.90;12.20;;;18.10;33.40;;;;;;5050220;28;20498;-71
2021/04/26 14:48:43;;;;;;;12.57;11.87;;;18.00;33.30;;;;;;5050762;28;20451;-70
2021/04/26 14:51:10;;;;;;;12.23;11.40;;;17.80;31.70;;;;;;5050732;28;20490;-71
2021/04/26 14:53:36;;;;;;;12.37;11.57;;;17.80;31.80;;;;;;5050359;28;20451;-71
2021/04/26 14:56:02;;;;;;;12.10;11.40;;;17.80;32.70;;;;;;5050634;28;20452;-70
2021/04/26 14:58:28;;;;;;;12.33;11.63;;;17.90;34.10;;;;;;5050249;28;20704;-71
2021/04/26 15:00:55;;;;;;;12.87;12.27;;;17.80;34.20;;;;;;5050803;28;20825;-71
2021/04/26 15:03:21;;;;;;;13.63;12.67;;;17.80;35.00;;;;;;5050378;28;20479;-71
2021/04/26 15:05:47;;;;;;;12.40;11.80;;;17.70;34.30;;;;;;5050536;28;20444;-70
2021/04/26 15:08:55;;;;;;;12.80;12.20;;;17.70;35.10;;;;;;5050299;28;20460;-70
2021/04/26 15:11:21;;;;;;;11.97;11.47;;;17.50;35.40;;;;;;5050355;28;20946;-71
2021/04/26 15:13:48;;;;;;;12.17;11.47;;;17.40;35.10;;;;;;5050686;28;20449;-70
2021/04/26 15:16:15;;;;;;;13.13;12.23;;;17.50;35.20;;;;;;5050558;28;20574;-71
2021/04/26 15:18:41;;;;;;;12.27;11.63;;;17.50;35.40;;;;;;5050478;28;20475;-72
2021/04/26 15:21:07;;;;;;;12.90;12.40;;;17.60;34.70;;;;;;5050244;28;20478;-71
2021/04/26 15:23:34;;;;;;;13.67;12.97;;;17.60;34.80;;;;;;5050271;28;20488;-71
2021/04/26 15:26:00;;;;;;;13.73;13.00;;;17.50;35.60;;;;;;5050482;28;20451;-71
2021/04/26 15:28:26;;;;;;;12.33;11.73;;;17.40;36.00;;;;;;5050622;28;20464;-71
2021/04/26 15:30:53;;;;;;;12.23;11.63;;;17.40;35.50;;;;;;5050409;28;20444;-71
2021/04/26 15:33:21;;;;;;;13.37;12.57;;;17.50;36.70;;;;;;5050575;28;20487;-71
2021/04/26 15:35:50;;;;;;;13.10;12.30;;;17.40;36.80;;;;;;5050461;28;20444;-71
2021/04/26 15:38:17;;;;;;;12.50;11.80;;;17.50;37.00;;;;;;5050329;28;20455;-71
2021/04/26 15:40:44;;;;;;;12.77;12.27;;;17.40;38.20;;;;;;5050342;28;20502;-72
2021/04/26 15:43:12;;;;;;;11.93;11.20;;;17.40;37.10;;;;;;5050324;28;20483;-71
2021/04/26 15:45:39;;;;;;;12.07;11.40;;;17.40;36.70;;;;;;5050773;28;20455;-70
2021/04/26 15:48:06;;;;;;;12.97;12.20;;;17.40;36.30;;;;;;5050520;28;20452;-71
2021/04/26 15:50:34;;;;;;;12.47;11.77;;;17.50;37.30;;;;;;5050223;28;20651;-71
2021/04/26 15:53:00;;;;;;;11.90;11.20;;;17.50;36.30;;;;;;5052193;28;20444;-71
2021/04/26 15:55:27;;;;;;;12.23;11.63;;;17.50;35.70;;;;;;5054002;28;20444;-71
2021/04/26 15:57:54;;;;;;;12.67;11.97;;;17.40;35.90;;;;;;5053754;28;20459;-71
2021/04/26 16:00:22;;;;;;;12.67;11.80;;;17.40;36.30;;;;;;5053746;28;20952;-71
2021/04/26 16:02:48;;;;;;;13.10;12.50;;;17.40;36.50;;;;;;5053705;28;20452;-71
2021/04/26 16:05:15;;;;;;;12.80;12.00;;;17.40;37.20;;;;;;5053395;28;20462;-71
2021/04/26 16:07:42;;;;;;;13.57;12.87;;;17.20;37.00;;;;;;5053599;28;20451;-72
2021/04/26 16:10:11;;;;;;;13.60;12.90;;;17.30;38.70;;;;;;5053646;28;20957;-71
2021/04/26 16:12:38;;;;;;;13.73;13.03;;;17.40;38.70;;;;;;5053504;28;20459;-71
2021/04/26 16:15:05;;;;;;;13.60;12.73;;;17.20;37.70;;;;;;5053377;28;20452;-71
2021/04/26 16:17:31;;;;;;;13.93;13.20;;;17.10;39.60;;;;;;5053474;28;20673;-71
2021/04/26 16:19:57;;;;;;;15.67;14.80;;;17.10;40.80;;;;;;5053274;28;21005;-71
2021/04/26 16:22:24;;;;;;;14.10;13.40;;;17.10;41.00;;;;;;5053191;28;20476;-71
2021/04/26 16:24:51;;;;;;;15.30;14.30;;;17.10;40.60;;;;;;5053338;28;20483;-71
2021/04/26 16:27:17;;;;;;;16.40;15.03;;;17.00;40.90;;;;;;5053507;28;20444;-71
2021/04/26 16:29:44;;;;;;;14.40;13.60;;;16.90;40.60;;;;;;5053265;28;20452;-71
2021/04/26 16:32:10;;;;;;;14.97;14.17;;;17.00;41.00;;;;;;5053169;28;20970;-72
2021/04/26 16:34:37;;;;;;;13.77;12.93;;;16.90;40.70;;;;;;5053226;28;20443;-71
2021/04/26 16:37:04;;;;;;;14.50;13.40;;;16.90;40.90;;;;;;5052987;28;20451;-71
2021/04/26 16:39:30;;;;;;;14.63;13.73;;;16.90;40.70;;;;;;5053069;28;20444;-71
2021/04/26 16:41:57;;;;;;;14.67;13.87;;;16.90;40.90;;;;;;5052910;28;20443;-71
2021/04/26 16:44:23;;;;;;;14.87;13.80;;;16.90;40.40;;;;;;5052928;28;20993;-71
2021/04/26 16:46:50;;;;;;;14.90;14.00;;;16.90;40.40;;;;;;5053049;28;20455;-71
2021/04/26 16:49:16;;;;;;;13.47;12.70;;;16.80;40.40;;;;;;5052675;28;20444;-72
2021/04/26 16:51:43;;;;;;;14.57;13.47;;;16.70;40.60;;;;;;5052771;28;20444;-71
2021/04/26 16:54:10;;;;;;;15.17;14.27;;;16.70;40.50;;;;;;5052752;28;20509;-70
2021/04/26 16:56:36;;;;;;;14.40;13.70;;;16.70;40.70;;;;;;5052988;28;20448;-72
2021/04/26 16:59:04;;;;;;;15.00;14.00;;;16.60;40.70;;;;;;5052657;28;20452;-72